Time;durP1;ratioP1;P1;durP2;ratioP2;P2;SDS_P1;SDS_P2;PMS_P1;PMS_P2;Temp;Humidity;BMP_temperature;BMP_pressure;BME280_temperature;BME280_humidity;BME280_pressure;Samples;Min_cycle;Max_cycle;Signal;HPM_P1;HPM_P2
2022/08/20 00:00:53;;;;;;;25.50;17.15;;;21.00;54.50;;;;;;5026524;28;20041;-89
2022/08/20 00:03:30;;;;;;;22.33;15.18;;;21.00;54.90;;;;;;5027313;28;20369;-91
2022/08/20 00:06:02;;;;;;;30.80;17.60;;;21.00;55.10;;;;;;5020870;28;20069;-87
2022/08/20 00:08:29;;;;;;;23.08;18.23;;;21.00;55.10;;;;;;5025252;28;20087;-89
2022/08/20 00:10:57;;;;;;;27.52;17.48;;;20.90;55.30;;;;;;5026203;28;20044;-87
2022/08/20 00:13:31;;;;;;;28.75;18.65;;;20.90;55.30;;;;;;5010721;28;20033;-89
2022/08/20 00:15:57;;;;;;;27.73;17.17;;;20.80;55.50;;;;;;5022192;28;20033;-88
2022/08/20 00:18:23;;;;;;;26.65;17.92;;;20.80;55.80;;;;;;5011545;28;20037;-83
2022/08/20 00:20:51;;;;;;;25.38;17.98;;;20.80;56.00;;;;;;5027499;28;20045;-88
2022/08/20 00:23:18;;;;;;;28.13;17.15;;;20.80;56.10;;;;;;5027601;28;20037;-91
2022/08/20 00:25:45;;;;;;;25.90;17.92;;;20.80;56.20;;;;;;5027672;28;20045;-88
2022/08/20 00:28:11;;;;;;;23.35;18.13;;;20.70;57.00;;;;;;5028348;28;20087;-90
2022/08/20 00:30:38;;;;;;;26.67;17.88;;;;;;;;;;5011589;28;20040;-88
2022/08/20 00:33:08;;;;;;;23.33;16.92;;;20.60;56.30;;;;;;5028610;28;20033;-86
2022/08/20 00:35:38;;;;;;;31.58;17.65;;;20.60;56.80;;;;;;5010242;28;20858;-80
2022/08/20 00:38:05;;;;;;;25.25;17.48;;;20.60;57.00;;;;;;5026262;28;20038;-81
2022/08/20 00:40:39;;;;;;;24.58;16.35;;;20.50;57.10;;;;;;5025600;28;20415;-80
2022/08/20 00:43:22;;;;;;;22.17;16.60;;;20.50;57.30;;;;;;5025901;28;20265;-80
2022/08/20 00:45:49;;;;;;;26.08;16.60;;;20.50;58.00;;;;;;5027368;28;20848;-81
2022/08/20 00:48:16;;;;;;;22.90;16.60;;;20.40;57.60;;;;;;5025872;28;20487;-81
2022/08/20 00:50:42;;;;;;;22.85;15.88;;;20.40;57.80;;;;;;5027154;28;20037;-78
2022/08/20 00:53:08;;;;;;;23.75;16.33;;;20.50;57.80;;;;;;5025610;28;20120;-81
2022/08/20 00:55:35;;;;;;;26.52;16.75;;;20.50;58.40;;;;;;5031592;28;20459;-81
2022/08/20 00:58:07;;;;;;;26.67;16.80;;;20.40;57.90;;;;;;5046172;28;20693;-81
2022/08/20 01:00:44;;;;;;;24.25;17.00;;;20.40;58.00;;;;;;5044723;28;20029;-79
2022/08/20 01:03:13;;;;;;;26.48;16.65;;;20.40;58.20;;;;;;5031319;28;20090;-79
2022/08/20 01:05:47;;;;;;;24.13;16.67;;;20.30;58.20;;;;;;5045070;28;20044;-80
2022/08/20 01:08:15;;;;;;;28.52;16.77;;;20.30;58.40;;;;;;5045167;28;20029;-81
2022/08/20 01:10:44;;;;;;;21.60;15.60;;;20.30;58.30;;;;;;5044184;28;20498;-81
2022/08/20 01:13:13;;;;;;;26.83;16.17;;;20.30;58.50;;;;;;5044490;28;20126;-80
2022/08/20 01:15:42;;;;;;;24.70;15.98;;;20.30;58.60;;;;;;5043573;28;20087;-81
2022/08/20 01:18:19;;;;;;;28.52;16.63;;;20.30;58.50;;;;;;5030098;28;20025;-80
2022/08/20 01:20:58;;;;;;;27.48;16.48;;;20.20;58.60;;;;;;5043819;28;20033;-75
2022/08/20 01:23:28;;;;;;;25.02;16.90;;;20.20;58.80;;;;;;5044255;28;20033;-80
2022/08/20 01:26:05;;;;;;;27.40;15.18;;;20.20;58.80;;;;;;5044254;28;20041;-81
2022/08/20 01:28:40;;;;;;;20.83;15.50;;;20.30;58.80;;;;;;5047810;28;20033;-80
2022/08/20 01:31:09;;;;;;;22.05;15.45;;;20.20;58.50;;;;;;5050943;28;20040;-78
2022/08/20 01:33:36;;;;;;;25.80;16.90;;;20.20;58.70;;;;;;5045785;28;20028;-79
2022/08/20 01:36:03;;;;;;;21.58;15.82;;;20.20;59.00;;;;;;5047453;28;20039;-78
2022/08/20 01:38:30;;;;;;;27.35;17.63;;;20.20;58.90;;;;;;5035173;28;20037;-80
2022/08/20 01:41:21;;;;;;;24.20;16.98;;;20.10;59.00;;;;;;5033560;28;20038;-81
2022/08/20 01:43:55;;;;;;;22.20;16.77;;;20.00;59.10;;;;;;5047559;28;20049;-80
2022/08/20 01:46:42;;;;;;;20.45;17.20;;;20.00;59.20;;;;;;5046540;28;20104;-81
2022/08/20 01:49:29;;;;;;;24.73;17.02;;;20.00;59.40;;;;;;5012218;28;20045;-81
2022/08/20 01:51:59;;;;;;;25.45;16.65;;;20.00;59.70;;;;;;5047294;28;20105;-81
2022/08/20 01:54:26;;;;;;;21.80;16.58;;;19.90;59.80;;;;;;5047376;28;20037;-80
2022/08/20 01:57:11;;;;;;;19.77;15.55;;;19.80;59.60;;;;;;5045011;28;20057;-84
2022/08/20 01:59:37;;;;;;;24.70;15.82;;;19.90;59.90;;;;;;5052620;28;20035;-82
2022/08/20 02:02:04;;;;;;;19.55;15.23;;;19.90;59.90;;;;;;5047205;28;20040;-80
2022/08/20 02:04:30;;;;;;;22.77;14.70;;;19.90;59.80;;;;;;5027760;28;20171;-79
2022/08/20 02:06:58;;;;;;;21.90;14.55;;;20.00;60.00;;;;;;5045710;28;20028;-83
2022/08/20 02:09:30;;;;;;;25.05;14.75;;;20.00;59.90;;;;;;5048941;28;20086;-80
2022/08/20 02:11:56;;;;;;;19.13;13.55;;;19.90;59.70;;;;;;5042295;28;20123;-82
2022/08/20 02:14:22;;;;;;;22.50;12.95;;;19.90;59.70;;;;;;5048901;28;20039;-80
2022/08/20 02:16:49;;;;;;;19.40;13.65;;;19.80;60.00;;;;;;5044243;28;20033;-81
2022/08/20 02:19:40;;;;;;;19.38;13.40;;;19.80;59.90;;;;;;5045408;28;20088;-83
2022/08/20 02:22:33;;;;;;;16.98;12.90;;;19.80;60.00;;;;;;5046612;28;20033;-81
2022/08/20 02:24:59;;;;;;;18.38;13.07;;;19.80;60.20;;;;;;5047654;28;20063;-81
2022/08/20 02:27:25;;;;;;;21.75;13.68;;;19.70;60.10;;;;;;5048031;28;20037;-82
2022/08/20 02:29:52;;;;;;;26.55;17.77;;;19.70;60.30;;;;;;5048190;28;20049;-81
2022/08/20 02:32:18;;;;;;;27.33;19.13;;;19.60;60.30;;;;;;5045475;28;20039;-86
2022/08/20 02:34:45;;;;;;;31.65;23.40;;;19.60;60.60;;;;;;5029054;28;20041;-86
2022/08/20 02:37:15;;;;;;;35.65;24.67;;;19.60;60.90;;;;;;5045234;28;20064;-86
2022/08/20 02:39:41;;;;;;;37.92;27.80;;;19.40;61.20;;;;;;5018539;28;20475;-84
2022/08/20 02:42:08;;;;;;;41.15;28.35;;;19.40;61.30;;;;;;5027296;28;20123;-82
2022/08/20 02:44:34;;;;;;;40.53;29.13;;;19.40;61.60;;;;;;5045876;28;20128;-86
2022/08/20 02:47:00;;;;;;;41.97;29.95;;;19.40;61.70;;;;;;5026218;28;20033;-87
2022/08/20 02:49:27;;;;;;;38.50;28.23;;;19.40;61.80;;;;;;5044781;28;20140;-80
2022/08/20 02:51:53;;;;;;;40.45;26.83;;;19.40;62.00;;;;;;5044930;28;20068;-83
2022/08/20 02:54:19;;;;;;;39.35;28.50;;;19.30;62.30;;;;;;5049146;28;20079;-83
2022/08/20 02:56:46;;;;;;;39.13;26.92;;;19.30;62.30;;;;;;5046021;28;20053;-83
2022/08/20 02:59:12;;;;;;;32.78;24.80;;;19.30;62.50;;;;;;5045922;28;20030;-81
2022/08/20 03:01:38;;;;;;;40.13;24.48;;;19.40;62.60;;;;;;5046685;28;20131;-79
2022/08/20 03:04:04;;;;;;;29.75;22.92;;;19.50;62.40;;;;;;5044156;28;20083;-81
2022/08/20 03:06:30;;;;;;;33.63;23.00;;;19.40;62.40;;;;;;5049403;28;20590;-82
2022/08/20 03:08:56;;;;;;;33.00;22.90;;;19.50;62.60;;;;;;5045542;28;20421;-82
2022/08/20 03:11:22;;;;;;;28.90;20.77;;;19.50;62.90;;;;;;5043747;28;20037;-79
2022/08/20 03:13:48;;;;;;;26.65;20.65;;;19.60;62.30;;;;;;5033127;28;20066;-85
2022/08/20 03:16:14;;;;;;;27.40;18.13;;;19.60;62.40;;;;;;5046961;28;20037;-85
2022/08/20 03:18:46;;;;;;;25.10;17.42;;;19.50;62.40;;;;;;5048189;28;20036;-85
2022/08/20 03:21:12;;;;;;;26.75;16.75;;;19.60;62.60;;;;;;5048378;28;20163;-84
2022/08/20 03:23:39;;;;;;;26.83;16.23;;;19.60;62.50;;;;;;5049119;28;20082;-85
2022/08/20 03:26:08;;;;;;;22.88;13.63;;;19.70;62.60;;;;;;5033663;28;20040;-82
2022/08/20 03:28:34;;;;;;;24.02;13.05;;;19.60;62.60;;;;;;5044256;28;20036;-84
2022/08/20 03:31:01;;;;;;;18.75;11.13;;;19.60;62.90;;;;;;5051121;28;20040;-85
2022/08/20 03:33:30;;;;;;;20.95;10.38;;;19.50;62.70;;;;;;5046553;28;20040;-81
2022/08/20 03:35:56;;;;;;;16.17;10.18;;;19.50;62.90;;;;;;5046459;28;20513;-82
2022/08/20 03:38:23;;;;;;;12.75;9.15;;;19.50;63.00;;;;;;5046039;28;20114;-78
2022/08/20 03:40:50;;;;;;;19.90;8.55;;;19.60;63.10;;;;;;5027111;28;20077;-81
2022/08/20 03:43:16;;;;;;;15.38;9.25;;;19.60;63.00;;;;;;5016412;28;20040;-82
2022/08/20 03:45:44;;;;;;;12.10;8.52;;;19.60;62.80;;;;;;5046573;28;20139;-78
2022/08/20 03:48:16;;;;;;;16.15;9.85;;;19.70;62.90;;;;;;5043857;28;20433;-82
2022/08/20 03:50:43;;;;;;;17.05;9.25;;;19.80;62.80;;;;;;5044170;28;20037;-82
2022/08/20 03:53:11;;;;;;;16.48;10.15;;;19.80;62.50;;;;;;5047443;28;20037;-83
2022/08/20 03:55:37;;;;;;;17.90;9.23;;;19.80;62.40;;;;;;5026137;28;20097;-84
2022/08/20 03:58:05;;;;;;;19.50;9.82;;;19.70;62.60;;;;;;5010380;28;20095;-80
2022/08/20 04:00:31;;;;;;;18.45;9.88;;;19.70;62.70;;;;;;5044145;28;20025;-80
2022/08/20 04:02:59;;;;;;;18.13;9.15;;;19.60;62.60;;;;;;5044845;28;20590;-82
2022/08/20 04:05:28;;;;;;;15.55;8.60;;;19.70;62.60;;;;;;5041656;28;20026;-82
2022/08/20 04:07:55;;;;;;;18.15;8.13;;;19.60;62.30;;;;;;5047102;28;20033;-81
2022/08/20 04:10:21;;;;;;;13.70;8.38;;;19.60;62.20;;;;;;5042250;28;20060;-82
2022/08/20 04:12:47;;;;;;;13.07;8.23;;;19.60;61.90;;;;;;5046173;28;20613;-78
2022/08/20 04:15:14;;;;;;;17.90;8.30;;;19.70;61.70;;;;;;5042437;28;20029;-83
2022/08/20 04:17:42;;;;;;;15.40;7.88;;;19.80;61.50;;;;;;5041645;28;20033;-83
2022/08/20 04:20:11;;;;;;;15.57;7.22;;;19.80;61.20;;;;;;5047035;28;20055;-83
2022/08/20 04:22:38;;;;;;;14.60;7.60;;;19.80;61.50;;;;;;5043134;28;20438;-81
2022/08/20 04:25:07;;;;;;;14.65;7.95;;;19.90;62.00;;;;;;5042841;28;20026;-81
2022/08/20 04:27:36;;;;;;;15.88;8.05;;;20.00;60.50;;;;;;5016304;28;20061;-83
2022/08/20 04:30:05;;;;;;;16.58;7.68;;;20.10;60.30;;;;;;5031389;28;20426;-83
2022/08/20 04:32:35;;;;;;;14.93;8.02;;;20.50;59.20;;;;;;5042340;28;20159;-79
2022/08/20 04:35:05;;;;;;;12.57;7.63;;;20.90;58.20;;;;;;5045640;28;20059;-83
2022/08/20 04:37:32;;;;;;;13.43;7.43;;;21.30;57.30;;;;;;5047055;28;20029;-82
2022/08/20 04:42:52;;;;;;;10.45;7.40;;;21.70;56.10;;;;;;5042826;28;20033;-80
2022/08/20 04:45:18;;;;;;;10.85;7.90;;;21.70;56.10;;;;;;5031886;28;20436;-81
2022/08/20 04:47:45;;;;;;;11.80;8.52;;;22.00;55.20;;;;;;5040418;28;20119;-81
2022/08/20 04:50:12;;;;;;;14.77;7.25;;;22.20;54.30;;;;;;5044412;28;20043;-81
2022/08/20 04:52:38;;;;;;;12.75;7.47;;;22.40;54.20;;;;;;5043424;28;20127;-81
2022/08/20 04:55:05;;;;;;;19.10;8.02;;;22.70;53.60;;;;;;5042094;28;20495;-78
2022/08/20 04:57:32;;;;;;;14.55;8.00;;;22.80;53.00;;;;;;5041295;28;20052;-81
2022/08/20 04:59:59;;;;;;;12.15;7.65;;;22.90;52.70;;;;;;5027593;28;20146;-81
2022/08/20 05:02:25;;;;;;;12.68;7.57;;;22.90;52.20;;;;;;5026088;28;20033;-80
2022/08/20 05:04:51;;;;;;;14.18;7.78;;;23.00;52.40;;;;;;5044720;28;20033;-80
2022/08/20 05:07:17;;;;;;;11.48;7.70;;;23.10;52.10;;;;;;5025231;28;20043;-81
2022/08/20 05:09:44;;;;;;;15.80;8.02;;;23.30;51.90;;;;;;5045787;28;20856;-77
2022/08/20 05:12:12;;;;;;;11.75;7.40;;;23.50;51.50;;;;;;5048555;28;20499;-81
2022/08/20 05:14:38;;;;;;;10.57;7.50;;;23.40;51.30;;;;;;5029697;28;20039;-82
2022/08/20 05:17:05;;;;;;;14.85;7.95;;;23.20;50.90;;;;;;5007458;28;20041;-81
2022/08/20 05:19:33;;;;;;;13.32;7.60;;;23.30;51.40;;;;;;5025217;28;20889;-84
2022/08/20 05:22:00;;;;;;;12.20;6.68;;;23.50;51.20;;;;;;5044343;28;20029;-83
2022/08/20 05:24:26;;;;;;;12.48;6.93;;;23.50;50.70;;;;;;5025390;28;20116;-83
2022/08/20 05:26:54;;;;;;;16.70;7.40;;;23.20;50.80;;;;;;5042869;28;20123;-82
2022/08/20 05:29:21;;;;;;;13.57;6.55;;;23.10;51.00;;;;;;5014943;28;20060;-82
2022/08/20 05:31:48;;;;;;;9.68;6.63;;;23.00;51.20;;;;;;5040784;28;20041;-81
2022/08/20 05:34:14;;;;;;;10.90;6.03;;;22.80;51.80;;;;;;5042571;28;20038;-81
2022/08/20 05:36:46;;;;;;;11.95;6.38;;;22.70;51.80;;;;;;5042748;28;20082;-82
2022/08/20 05:39:12;;;;;;;13.95;6.20;;;22.40;52.00;;;;;;5043184;28;20455;-82
2022/08/20 05:41:39;;;;;;;11.40;6.13;;;22.30;52.40;;;;;;5045296;28;20041;-83
2022/08/20 05:44:09;;;;;;;13.25;6.50;;;22.20;52.80;;;;;;5040630;28;20056;-81
2022/08/20 05:46:39;;;;;;;10.15;5.45;;;22.20;53.00;;;;;;5045446;28;20400;-83
2022/08/20 05:49:14;;;;;;;9.13;5.35;;;22.20;53.10;;;;;;5045172;28;20042;-79
2022/08/20 05:51:41;;;;;;;;;;;22.10;53.30;;;;;;5043442;28;20067;-83
2022/08/20 05:54:07;;;;;;;9.77;5.40;;;22.10;53.20;;;;;;5040949;28;20018;-82
2022/08/20 05:56:33;;;;;;;13.82;4.72;;;22.10;53.40;;;;;;5024750;28;20054;-81
2022/08/20 05:59:03;;;;;;;12.18;4.75;;;22.00;53.40;;;;;;5046220;28;20120;-82
2022/08/20 06:01:31;;;;;;;7.88;4.82;;;21.80;53.60;;;;;;5042456;28;20597;-81
2022/08/20 06:06:42;;;;;;;10.00;4.60;;;21.60;54.30;;;;;;5041825;28;20067;-79
2022/08/20 06:09:08;;;;;;;6.13;4.72;;;21.60;54.80;;;;;;5046805;28;20364;-82
2022/08/20 06:11:35;;;;;;;7.95;4.78;;;21.50;54.80;;;;;;5046632;28;20158;-82
2022/08/20 06:14:02;;;;;;;7.32;3.95;;;21.50;55.20;;;;;;5051345;28;20380;-82
2022/08/20 06:16:29;;;;;;;7.53;4.30;;;21.40;55.40;;;;;;5047283;28;20456;-82
2022/08/20 06:18:55;;;;;;;10.45;4.70;;;21.40;55.60;;;;;;5043634;28;20040;-82
2022/08/20 06:21:21;;;;;;;9.30;4.63;;;21.40;55.70;;;;;;5044684;28;20029;-83
2022/08/20 06:23:47;;;;;;;7.28;4.72;;;21.40;55.70;;;;;;5046846;28;20041;-79
2022/08/20 06:26:13;;;;;;;9.38;4.40;;;21.40;55.80;;;;;;5030452;28;20060;-80
2022/08/20 06:28:40;;;;;;;5.68;3.85;;;21.30;56.10;;;;;;5046146;28;20479;-82
2022/08/20 06:31:06;;;;;;;10.00;4.57;;;21.20;56.20;;;;;;5046859;28;20040;-81
2022/08/20 06:33:32;;;;;;;11.27;4.22;;;21.20;56.30;;;;;;5027367;28;20120;-83
2022/08/20 06:35:58;;;;;;;8.88;4.20;;;21.10;56.50;;;;;;5045598;28;20038;-84
2022/08/20 06:38:24;;;;;;;18.63;6.30;;;21.20;56.80;;;;;;5042717;28;20044;-79
2022/08/20 06:40:50;;;;;;;8.38;4.28;;;21.30;56.70;;;;;;5014230;28;20032;-89
2022/08/20 06:43:16;;;;;;;12.23;4.40;;;21.30;56.50;;;;;;5018742;28;20037;-87
2022/08/20 06:45:43;;;;;;;5.75;3.40;;;21.30;56.20;;;;;;5030536;28;20478;-83
2022/08/20 06:48:11;;;;;;;10.52;3.97;;;21.40;56.10;;;;;;5049800;28;20091;-90
2022/08/20 06:50:41;;;;;;;9.65;3.97;;;21.40;56.00;;;;;;5029892;28;20044;-90
2022/08/20 06:53:12;;;;;;;8.30;3.80;;;21.40;55.80;;;;;;5050782;28;20058;-92
2022/08/20 06:55:41;;;;;;;7.78;3.58;;;21.30;56.10;;;;;;5049249;28;20382;-86
2022/08/20 06:58:10;;;;;;;10.50;3.72;;;21.30;56.10;;;;;;5050073;28;20098;-83
2022/08/20 07:00:37;;;;;;;10.00;3.95;;;21.30;56.30;;;;;;5048000;28;20471;-83
2022/08/20 07:03:04;;;;;;;12.25;4.43;;;21.30;56.00;;;;;;5046034;28;20025;-81
2022/08/20 07:05:32;;;;;;;5.80;3.58;;;21.30;56.00;;;;;;5016255;28;20039;-81
2022/08/20 07:07:59;;;;;;;10.85;4.10;;;21.40;56.30;;;;;;5044547;28;20584;-83
2022/08/20 07:10:27;;;;;;;5.70;3.83;;;21.40;56.10;;;;;;5016097;28;20523;-80
2022/08/20 07:12:53;;;;;;;10.82;3.97;;;21.40;56.90;;;;;;5045366;28;20029;-82
2022/08/20 07:15:22;;;;;;;10.93;3.92;;;21.50;56.70;;;;;;5045324;28;20115;-80
2022/08/20 07:17:57;;;;;;;10.27;4.13;;;21.60;56.40;;;;;;5015605;28;20037;-79
2022/08/20 07:20:24;;;;;;;8.65;4.55;;;21.70;56.40;;;;;;5050739;28;20531;-80
2022/08/20 07:22:51;;;;;;;14.82;7.13;;;21.80;56.10;;;;;;5047461;28;20457;-81
2022/08/20 07:25:19;;;;;;;14.85;5.70;;;21.70;55.90;;;;;;5047060;28;20032;-80
2022/08/20 07:27:46;;;;;;;10.73;4.70;;;21.70;56.10;;;;;;5043804;28;20041;-78
2022/08/20 07:33:12;;;;;;;11.52;4.45;;;21.80;55.60;;;;;;5047133;28;20286;-76
2022/08/20 07:35:37;;;;;;;9.63;4.85;;;21.80;55.90;;;;;;5046168;28;20046;-76
2022/08/20 07:38:03;;;;;;;9.23;4.30;;;22.00;55.90;;;;;;5043848;28;20033;-76
2022/08/20 07:40:32;;;;;;;9.75;4.40;;;22.00;55.20;;;;;;5027372;28;20452;-76
2022/08/20 07:43:01;;;;;;;7.15;4.25;;;22.00;55.60;;;;;;5044329;28;20074;-76
2022/08/20 07:45:28;;;;;;;8.30;4.30;;;22.00;55.20;;;;;;5047210;28;20056;-76
2022/08/20 07:47:54;;;;;;;7.07;4.05;;;22.00;54.40;;;;;;5055122;28;20041;-78
2022/08/20 07:50:25;;;;;;;6.07;3.95;;;22.10;55.00;;;;;;5052826;28;20546;-76
2022/08/20 07:52:51;;;;;;;9.88;4.13;;;22.20;54.40;;;;;;5063392;28;20037;-76
2022/08/20 07:55:19;;;;;;;10.27;4.38;;;22.30;54.40;;;;;;5055237;28;20037;-75
2022/08/20 07:57:49;;;;;;;7.88;4.03;;;22.40;53.80;;;;;;5051491;28;20071;-76
2022/08/20 08:00:16;;;;;;;9.93;4.00;;;22.40;54.00;;;;;;5053815;28;20028;-75
2022/08/20 08:02:42;;;;;;;9.43;4.10;;;22.50;53.60;;;;;;5045728;28;20045;-76
2022/08/20 08:05:08;;;;;;;8.43;4.00;;;22.40;53.00;;;;;;5034180;28;20057;-76
2022/08/20 08:07:35;;;;;;;6.70;3.78;;;22.50;53.70;;;;;;5050640;28;20086;-76
2022/08/20 08:10:04;;;;;;;7.03;3.60;;;22.50;52.70;;;;;;5056102;28;20043;-75
2022/08/20 08:12:37;;;;;;;4.88;3.58;;;22.60;53.60;;;;;;5055627;28;20033;-76
2022/08/20 08:15:05;;;;;;;10.10;3.28;;;22.80;52.60;;;;;;5052518;28;20029;-75
2022/08/20 08:17:33;;;;;;;7.03;3.63;;;22.70;51.20;;;;;;5031696;28;20064;-75
2022/08/20 08:19:59;;;;;;;7.85;3.97;;;22.80;52.10;;;;;;5017049;28;20068;-75
2022/08/20 08:22:25;;;;;;;9.07;3.53;;;22.80;51.40;;;;;;5047968;28;20561;-76
2022/08/20 08:24:51;;;;;;;11.07;4.50;;;22.80;51.80;;;;;;5032401;28;20546;-76
2022/08/20 08:27:17;;;;;;;10.45;4.45;;;22.80;51.70;;;;;;5053415;28;20062;-76
2022/08/20 08:29:44;;;;;;;14.50;3.83;;;22.90;51.10;;;;;;5031962;28;20060;-76
2022/08/20 08:32:11;;;;;;;9.65;3.78;;;23.00;51.30;;;;;;5050953;28;20542;-76
2022/08/20 08:34:38;;;;;;;6.97;3.40;;;22.90;50.60;;;;;;5048455;28;20432;-76
2022/08/20 08:37:04;;;;;;;5.63;3.40;;;22.90;51.00;;;;;;5050407;28;20033;-76
2022/08/20 08:39:32;;;;;;;7.85;3.00;;;23.00;51.50;;;;;;5016353;28;20389;-76
2022/08/20 08:42:01;;;;;;;10.90;3.88;;;23.00;51.10;;;;;;5047394;28;20061;-76
2022/08/20 08:44:32;;;;;;;10.10;3.58;;;23.00;49.30;;;;;;5041440;28;20065;-77
2022/08/20 08:47:12;;;;;;;12.00;3.97;;;22.90;48.70;;;;;;5036354;28;20041;-76
2022/08/20 08:49:38;;;;;;;6.88;3.67;;;22.80;48.60;;;;;;5054346;28;20051;-77
2022/08/20 08:52:21;;;;;;;10.57;3.95;;;22.80;48.30;;;;;;5047271;28;20139;-77
2022/08/20 08:54:50;;;;;;;8.40;4.00;;;22.80;48.90;;;;;;5025543;28;20047;-77
2022/08/20 08:57:16;;;;;;;7.97;3.85;;;22.80;48.30;;;;;;5027018;28;20538;-78
2022/08/20 08:59:47;;;;;;;10.48;4.53;;;22.80;47.90;;;;;;4995561;28;20033;-80
2022/08/20 09:02:21;;;;;;;8.45;4.85;;;22.70;47.30;;;;;;5012857;28;20123;-78
2022/08/20 09:04:50;;;;;;;7.20;4.68;;;22.60;45.70;;;;;;5027315;28;20053;-77
2022/08/20 09:07:17;;;;;;;7.93;5.30;;;22.60;45.90;;;;;;5027540;28;20036;-76
2022/08/20 09:09:45;;;;;;;11.00;4.70;;;22.50;46.00;;;;;;5041411;28;20032;-88
2022/08/20 09:12:17;;;;;;;9.20;5.03;;;22.50;46.00;;;;;;5027610;28;20029;-84
2022/08/20 09:14:46;;;;;;;9.57;5.60;;;22.40;46.00;;;;;;5044243;28;20424;-85
2022/08/20 09:17:14;;;;;;;11.77;5.90;;;22.40;46.10;;;;;;5040954;28;20034;-86
2022/08/20 09:19:40;;;;;;;8.55;6.13;;;22.40;46.10;;;;;;5043083;28;20119;-81
2022/08/20 09:22:11;;;;;;;12.35;6.18;;;22.30;46.10;;;;;;5044593;28;20111;-79
2022/08/20 09:24:37;;;;;;;13.23;6.93;;;22.30;45.80;;;;;;5044997;28;20038;-78
2022/08/20 09:27:03;;;;;;;14.57;7.28;;;22.20;46.30;;;;;;5045151;28;20044;-78
2022/08/20 09:29:31;;;;;;;11.40;7.40;;;22.20;46.30;;;;;;5042686;28;20136;-77
2022/08/20 09:32:11;;;;;;;13.50;7.90;;;22.20;47.00;;;;;;5026146;28;20402;-77
2022/08/20 09:34:44;;;;;;;14.50;8.13;;;22.20;47.80;;;;;;5042627;28;20032;-78
2022/08/20 09:37:11;;;;;;;16.33;8.77;;;22.10;47.90;;;;;;5042098;28;20033;-79
2022/08/20 09:39:37;;;;;;;13.85;8.15;;;22.10;47.90;;;;;;5041303;28;20504;-81
2022/08/20 09:42:18;;;;;;;16.33;9.00;;;22.00;48.40;;;;;;5024823;28;20043;-81
2022/08/20 09:44:45;;;;;;;12.30;8.50;;;22.00;49.00;;;;;;5046036;28;20044;-79
2022/08/20 09:47:11;;;;;;;14.43;8.52;;;22.00;48.90;;;;;;5012001;28;20037;-85
2022/08/20 09:49:38;;;;;;;13.10;8.68;;;21.90;48.90;;;;;;5048543;28;20048;-83
2022/08/20 09:52:08;;;;;;;15.38;8.90;;;21.90;50.00;;;;;;5048609;28;20111;-83
2022/08/20 09:54:35;;;;;;;18.30;9.13;;;21.80;50.40;;;;;;5034907;28;20036;-85
2022/08/20 09:57:04;;;;;;;11.57;8.50;;;21.80;50.70;;;;;;5049106;28;20048;-85
2022/08/20 09:59:32;;;;;;;10.98;8.27;;;21.90;51.40;;;;;;5027653;28;20578;-83
2022/08/20 10:01:58;;;;;;;11.07;7.70;;;21.80;51.50;;;;;;5048140;28;20726;-83
2022/08/20 10:04:24;;;;;;;22.08;8.23;;;21.80;51.80;;;;;;5013606;28;20722;-85
2022/08/20 10:06:50;;;;;;;13.68;7.60;;;21.70;51.90;;;;;;5046868;28;20037;-84
2022/08/20 10:09:16;;;;;;;16.25;7.63;;;21.60;51.60;;;;;;5033728;28;20487;-85
2022/08/20 10:11:42;;;;;;;14.90;7.72;;;21.70;52.70;;;;;;5050003;28;20036;-85
2022/08/20 10:14:08;;;;;;;11.80;7.38;;;21.70;52.90;;;;;;5045646;28;20030;-81
2022/08/20 10:16:35;;;;;;;13.32;7.07;;;21.60;53.20;;;;;;5049232;28;20090;-85
2022/08/20 10:19:02;;;;;;;16.73;7.72;;;21.70;53.00;;;;;;5027768;28;20036;-82
2022/08/20 10:21:30;;;;;;;12.85;6.70;;;21.80;53.80;;;;;;5042843;28;21066;-82
2022/08/20 10:23:56;;;;;;;13.02;7.53;;;21.80;54.00;;;;;;5030174;28;20059;-84
2022/08/20 10:26:22;;;;;;;11.75;6.95;;;21.70;54.50;;;;;;5034777;28;20036;-83
2022/08/20 10:28:48;;;;;;;14.50;6.65;;;21.70;54.80;;;;;;5027838;28;20722;-80
2022/08/20 10:31:14;;;;;;;10.20;6.40;;;21.70;55.20;;;;;;5044440;28;20034;-83
2022/08/20 10:33:43;;;;;;;18.20;6.80;;;21.70;55.40;;;;;;5050428;28;20055;-82
2022/08/20 10:36:14;;;;;;;13.10;7.15;;;21.70;55.50;;;;;;5044427;28;20507;-82
2022/08/20 10:38:41;;;;;;;12.73;7.07;;;21.70;55.70;;;;;;5045668;28;20081;-82
2022/08/20 10:41:09;;;;;;;10.10;6.18;;;21.70;56.60;;;;;;5046752;28;20538;-81
2022/08/20 10:43:35;;;;;;;9.23;5.70;;;21.70;56.30;;;;;;5029367;28;20423;-82
2022/08/20 10:46:01;;;;;;;15.05;6.43;;;21.70;56.50;;;;;;5029716;28;20050;-85
2022/08/20 10:48:27;;;;;;;16.10;6.30;;;21.70;56.90;;;;;;5047436;28;20403;-85
2022/08/20 10:50:53;;;;;;;9.35;5.75;;;21.70;56.70;;;;;;5033501;28;20029;-80
2022/08/20 10:53:19;;;;;;;9.40;5.72;;;21.70;56.60;;;;;;5044397;28;20031;-80
2022/08/20 10:55:45;;;;;;;11.00;6.10;;;21.70;57.10;;;;;;5033230;28;20168;-77
2022/08/20 10:58:12;;;;;;;11.73;5.40;;;21.70;56.70;;;;;;5031214;28;20525;-81
2022/08/20 11:00:39;;;;;;;13.07;5.47;;;21.80;57.00;;;;;;5046855;28;20461;-85
2022/08/20 11:03:06;;;;;;;9.70;4.93;;;21.80;56.80;;;;;;5047737;28;20029;-82
2022/08/20 11:05:32;;;;;;;10.25;5.25;;;21.80;56.50;;;;;;5048920;28;20049;-84
2022/08/20 11:08:01;;;;;;;12.10;5.05;;;21.80;56.40;;;;;;5045634;28;20039;-86
2022/08/20 11:10:30;;;;;;;12.80;4.85;;;21.80;56.50;;;;;;5045297;28;20037;-86
2022/08/20 11:12:56;;;;;;;9.05;4.85;;;21.80;56.20;;;;;;5050052;28;20120;-86
2022/08/20 11:15:22;;;;;;;7.47;4.57;;;21.80;56.20;;;;;;5057890;28;20033;-80
2022/08/20 11:17:48;;;;;;;11.43;4.63;;;21.80;55.90;;;;;;5011045;28;20038;-83
2022/08/20 11:20:18;;;;;;;13.30;4.57;;;21.80;56.00;;;;;;5031985;28;20037;-88
2022/08/20 11:22:44;;;;;;;8.75;4.45;;;21.80;55.90;;;;;;5028025;28;20033;-82
2022/08/20 11:25:11;;;;;;;7.75;4.35;;;21.90;55.80;;;;;;5047303;28;20064;-86
2022/08/20 11:27:43;;;;;;;6.35;4.30;;;21.80;55.50;;;;;;5019572;28;20040;-83
2022/08/20 11:30:13;;;;;;;5.15;3.67;;;21.80;55.30;;;;;;5028703;28;20124;-88
2022/08/20 11:32:40;;;;;;;10.50;4.43;;;21.80;55.20;;;;;;5048010;28;20047;-86
2022/08/20 11:35:06;;;;;;;6.65;3.92;;;21.80;55.20;;;;;;5044375;28;20033;-85
2022/08/20 11:37:33;;;;;;;9.43;3.67;;;21.90;55.20;;;;;;5010759;28;20037;-85
2022/08/20 11:40:21;;;;;;;9.13;3.78;;;21.90;55.00;;;;;;5026721;28;20037;-84
2022/08/20 11:42:47;;;;;;;7.25;3.78;;;21.90;55.10;;;;;;5010532;28;20135;-83
2022/08/20 11:45:14;;;;;;;6.43;3.65;;;22.00;54.70;;;;;;5031581;28;20123;-83
2022/08/20 11:47:41;;;;;;;9.45;3.80;;;22.00;54.80;;;;;;5014471;28;20037;-83
2022/08/20 11:50:17;;;;;;;8.90;3.88;;;22.00;54.80;;;;;;5043537;28;20404;-83
2022/08/20 11:52:44;;;;;;;8.32;3.88;;;22.00;54.30;;;;;;5043717;28;20534;-87
2022/08/20 11:55:13;;;;;;;7.53;3.78;;;22.00;54.30;;;;;;5027379;28;20290;-85
2022/08/20 11:57:44;;;;;;;7.72;3.75;;;22.10;54.20;;;;;;5031868;28;20064;-88
2022/08/20 12:00:17;;;;;;;9.65;4.10;;;22.00;53.80;;;;;;5027078;28;20044;-89
2022/08/20 12:02:43;;;;;;;5.95;3.35;;;22.10;54.00;;;;;;5015776;28;20042;-86
2022/08/20 12:05:11;;;;;;;11.25;4.40;;;22.10;54.00;;;;;;5030547;28;20483;-86
2022/08/20 12:07:37;;;;;;;7.28;3.92;;;22.20;53.30;;;;;;5016103;28;20039;-86
2022/08/20 12:10:05;;;;;;;8.43;3.53;;;22.20;53.10;;;;;;4998298;28;20087;-86
2022/08/20 12:12:31;;;;;;;5.63;2.92;;;22.30;52.30;;;;;;5014853;28;20071;-85
2022/08/20 12:14:58;;;;;;;4.43;3.08;;;22.20;52.20;;;;;;5017213;28;20086;-87
2022/08/20 12:17:27;;;;;;;8.60;3.17;;;22.20;51.70;;;;;;5023465;28;20062;-86
2022/08/20 12:19:56;;;;;;;6.57;3.15;;;22.20;51.00;;;;;;5013533;28;20433;-85
2022/08/20 12:22:22;;;;;;;7.43;3.13;;;22.30;51.00;;;;;;5014773;28;20037;-87
2022/08/20 12:24:48;;;;;;;5.35;2.80;;;22.30;51.00;;;;;;5025653;28;20037;-85
2022/08/20 12:27:26;;;;;;;9.57;2.60;;;22.30;50.10;;;;;;5028431;28;20034;-85
2022/08/20 12:29:54;;;;;;;4.85;2.85;;;22.30;50.30;;;;;;5016530;28;20045;-84
2022/08/20 12:32:23;;;;;;;9.40;3.75;;;22.30;50.30;;;;;;5012299;28;20157;-85
2022/08/20 12:34:49;;;;;;;8.02;2.83;;;22.30;50.00;;;;;;5003544;28;20492;-82
2022/08/20 12:37:19;;;;;;;10.18;3.80;;;22.30;50.10;;;;;;5043382;28;20028;-79
2022/08/20 12:39:48;;;;;;;9.25;3.35;;;22.20;50.10;;;;;;5027036;28;20124;-80
2022/08/20 12:42:15;;;;;;;6.68;3.45;;;22.20;50.30;;;;;;5040017;28;20036;-81
2022/08/20 12:44:42;;;;;;;6.50;3.10;;;22.20;50.40;;;;;;5027090;28;20064;-79
2022/08/20 12:47:10;;;;;;;8.23;3.60;;;22.20;50.40;;;;;;5027402;28;20033;-82
2022/08/20 12:49:36;;;;;;;7.72;3.50;;;22.10;50.30;;;;;;5043719;28;20178;-83
2022/08/20 12:52:03;;;;;;;6.47;3.20;;;22.10;50.70;;;;;;5029655;28;20037;-81